TAF Text Data
IDs:
Format:
Raw Decoded Include METAR

Data at: 0200 UTC 01 Feb 2023

Region: TOP
KATL 010121Z 0101/0206 22006KT P6SM FEW009 OVC040
  TEMPO 0102/0104 P6SM BKN009
  FM010400 31005KT 4SM BR VCSH OVC006
  TEMPO 0106/0110 2SM -SHRA BR OVC004
  FM011400 32006KT P6SM BKN008
  FM012300 32006KT P6SM BKN035


KBOS 312324Z 0100/0206 35010KT P6SM SCT050
  FM010400 35010KT P6SM BKN110
  FM011400 32010KT P6SM SCT050
  FM012300 29010KT P6SM SCT120


KBWI 010158Z 0102/0206 04003KT 5SM -DZ BKN014 OVC025
  FM010400 01005KT P6SM OVC025
  FM010800 36005KT P6SM OVC015
  FM011100 35006KT P6SM OVC035
  FM011600 33010G17KT P6SM SCT250
  FM012200 31006KT P6SM FEW250


KCLE 312337Z 0100/0206 29007KT P6SM SCT025
  TEMPO 0100/0104 BKN025
  FM011000 26007KT P6SM FEW200
  FM011700 23008KT P6SM SCT200


KCLT 312339Z 0100/0206 20003KT P6SM SCT009 BKN015 OVC080
  TEMPO 0100/0104 -SHRA BKN009 OVC015
  FM010400 26004KT 6SM -SHRADZ BR OVC009
  FM010900 33004KT 5SM -RA BR OVC004
  FM011200 04006KT 4SM BR OVC006
  PROB30 0112/0116 4SM -RA BR OVC004
  FM011900 05006KT P6SM BKN013 OVC030
  FM020300 10006KT P6SM OVC030


KCVG 312325Z 0100/0206 35005KT P6SM OVC040
  FM010400 35005KT P6SM BKN090
  FM010800 35005KT P6SM BKN250
  FM011400 03004KT P6SM SCT250
  FM011800 VRB03KT P6SM SCT250
  FM020300 18003KT P6SM BKN250


KDCA 312336Z 0100/0206 06007KT P6SM SCT019 OVC024
  FM010400 02004KT P6SM OVC015
  FM010600 36005KT 5SM -RASN BR OVC008
  FM010900 35006KT P6SM OVC010
  FM011300 35010G17KT P6SM BKN050
  FM012200 34007KT P6SM SCT250


KDEN 312329Z 0100/0206 09006KT P6SM SKC
  FM010100 15009KT P6SM SKC
  FM010300 21010KT P6SM SKC
  FM011200 21007KT P6SM FEW090 SCT200
  FM012000 12007KT P6SM FEW090 SCT200


KDFW 312320Z 0100/0206 35014KT P6SM OVC015
  FM010200 36008KT 6SM -FZDZ OVC018
  FM011500 02006KT 5SM -FZRA OVC015
  TEMPO 0116/0120 2SM FZRAPL BR
  FM012200 35006KT 5SM -FZRA OVC008


KDTW 312331Z 0100/0206 24006KT P6SM SCT035 SCT120
  TEMPO 0100/0102 BKN035
  FM010600 26006KT P6SM SKC
  FM011400 24010KT P6SM SKC


KEWR 312340Z 0100/0206 36007KT P6SM SCT050 BKN070
  FM010700 01005KT 4SM -SN BKN025 OVC045
  FM010900 01006KT 2SM -SN BKN015 OVC025
  FM011300 33008KT P6SM SCT035 BKN250
  FM011700 31012KT P6SM SCT045
  FM020200 30004KT P6SM SKC


KFLL 312328Z 0100/0206 12006KT P6SM FEW030
  FM011500 14008KT P6SM SCT050
  FM020100 12006KT P6SM FEW030


KIAD 312336Z 0100/0206 07004KT 6SM -DZ SCT008 OVC019
  FM010600 35006KT 4SM -RASN OVC008
  FM010900 34007KT P6SM OVC015
  FM011300 34010G17KT P6SM BKN050
  FM012200 35004KT P6SM FEW250


KIAH 312336Z 0100/0206 35014KT 2SM -DZ BR OVC007
  FM010800 36010KT 4SM BR VCSH OVC004
  FM011600 03011KT 3SM SHRA BR OVC006
  FM020400 01008KT 5SM BR VCSH OVC005


KJFK 312340Z 0100/0206 01006KT P6SM SCT050 BKN060
  FM010700 02007KT 4SM -SN BKN025 OVC045
  FM010900 02008KT 2SM -SN BKN015 OVC025
  FM011300 33010KT 6SM BR SCT035 BKN250
  FM011700 31011KT P6SM SCT045
  FM020400 30004KT P6SM FEW250


KLAS 312329Z 0100/0206 05012KT P6SM SKC
  FM010300 01007KT P6SM SKC
  FM010900 VRB05KT P6SM SKC
  FM011800 06007KT P6SM SKC
  FM020300 VRB05KT P6SM SKC


KLAX 010048Z 0101/0206 31005KT P6SM SKC
  FM010500 VRB03KT P6SM SKC
  FM012100 26008KT P6SM SKC
  FM020400 VRB03KT P6SM SKC


KLGA 312340Z 0100/0206 02008KT P6SM SCT050 BKN070
  FM010700 03008KT 4SM -SN BKN030 OVC050
  FM010900 03008KT 3SM -SN BKN020 OVC030
  FM011300 34009KT P6SM SCT035 BKN250
  FM011700 32012KT P6SM SCT045
  FM020400 30005KT P6SM FEW250


KMCO 312330Z 0100/0206 09007KT P6SM SCT050
  FM010200 19003KT P6SM SKC
  TEMPO 0110/0113 3SM BR FEW002
  FM011400 27005KT P6SM SCT030
  FM011700 25007KT P6SM SCT040 SCT120
  FM020100 00000KT P6SM SKC


KMDW 312321Z 0100/0206 25006KT P6SM SKC
  FM011600 22011G18KT P6SM SKC
  FM012300 21008KT P6SM FEW250


KMEM 312340Z 0100/0206 03010KT 3SM FZRA BR OVC004
  FM010600 03008KT 5SM BR OVC007
  FM011500 02008KT P6SM SCT007 OVC015
  FM020000 03005KT P6SM -FZRA BKN007 OVC015


KMIA 312328Z 0100/0206 12006KT P6SM FEW030
  FM011500 14008KT P6SM SCT050
  FM020100 12006KT P6SM FEW030


KMSP 312330Z 0100/0206 21006KT P6SM FEW150
  FM010600 VRB03KT P6SM BKN100


KORD 312321Z 0100/0206 25006KT P6SM SKC
  FM011600 22011G18KT P6SM SKC
  FM012300 22008KT P6SM FEW250


KPDX 312320Z 0100/0124 13003KT P6SM BKN250

KPHL 312320Z 0100/0206 01006KT P6SM OVC050
  TEMPO 0100/0102 BKN015 OVC050
  FM010500 VRB04KT 6SM -SN OVC025
  FM011000 VRB05KT P6SM OVC025
  FM011500 33009KT P6SM SCT040
  FM011900 30010KT P6SM FEW250


KPHX 312321Z 0100/0206 28004KT P6SM FEW070 FEW100
  FM011600 10004KT P6SM FEW080
  FM012000 26005KT P6SM SKC


KPIT 312320Z 0100/0206 35005KT P6SM BKN250
  FM010300 31004KT P6SM OVC025
  FM011000 32005KT P6SM SCT025
  FM011600 29004KT P6SM SKC


KSAN 312337Z 0100/0206 30008KT P6SM FEW030
  FM010100 VRB04KT P6SM SKC
  FM012100 29008KT P6SM SKC
  FM020100 30005KT P6SM SKC


KSEA 312320Z 0100/0206 16003KT P6SM SCT150 BKN200
  FM010300 14004KT P6SM OVC120
  FM011000 14005KT P6SM OVC100
  FM011700 18003KT P6SM OVC250


KSFO 312320Z 0100/0206 VRB05KT P6SM FEW250
  FM012200 30006KT P6SM SCT250


KSLC 312320Z 0100/0206 34005KT P6SM FEW100
  FM010400 15005KT P6SM FEW080 SCT250
  FM011900 33005KT P6SM FEW200
  FM020300 15005KT P6SM SCT150


KSTL 312320Z 0100/0206 VRB04KT P6SM SCT250
  FM011600 18005KT P6SM SCT250


KTPA 312329Z 0100/0206 25005KT P6SM FEW050 SCT250
  FM010200 VRB02KT 1SM BR BKN005
  FM010500 VRB02KT 1/2SM FG BKN002
  TEMPO 0105/0108 1SM BR BKN005
  FM011500 20005KT P6SM BKN050 BKN250
  FM011800 25007KT P6SM SCT250
  FM020200 VRB02KT 6SM BR BKN035